createdAt,value
2022-12-25T00:00:21.002Z,3.38
2022-12-25T00:03:23.143Z,4.15
2022-12-25T00:06:25.087Z,5.03
2022-12-25T00:09:27.140Z,4.15
2022-12-25T00:12:28.838Z,3.92
2022-12-25T00:15:30.412Z,4.70
2022-12-25T00:18:32.070Z,3.88
2022-12-25T00:21:33.689Z,3.28
2022-12-25T00:24:35.360Z,3.92
2022-12-25T00:27:39.886Z,3.78
2022-12-25T00:30:41.483Z,3.22
2022-12-25T00:33:45.544Z,3.80
2022-12-25T00:36:50.729Z,3.50
2022-12-25T00:39:52.301Z,3.85
2022-12-25T00:42:53.885Z,4.00
2022-12-25T00:45:57.814Z,3.13
2022-12-25T00:49:00.529Z,4.25
2022-12-25T00:52:02.505Z,4.18
2022-12-25T00:55:04.648Z,3.75
2022-12-25T00:58:06.364Z,3.38
2022-12-25T01:01:11.026Z,3.70
2022-12-25T01:04:13.150Z,4.28
2022-12-25T01:07:16.965Z,4.47
2022-12-25T01:10:24.891Z,5.35
2022-12-25T01:13:28.173Z,4.18
2022-12-25T01:16:29.879Z,4.65
2022-12-25T01:19:31.612Z,4.50
2022-12-25T01:22:33.196Z,5.85
2022-12-25T01:25:34.913Z,4.65
2022-12-25T01:28:37.555Z,5.13
2022-12-25T01:31:39.233Z,6.07
2022-12-25T01:34:40.877Z,4.55
2022-12-25T01:37:42.523Z,4.53
2022-12-25T01:40:44.288Z,5.57
2022-12-25T01:43:59.885Z,5.00
2022-12-25T01:47:02.710Z,6.53
2022-12-25T01:50:04.835Z,4.10
2022-12-25T01:53:07.484Z,4.40
2022-12-25T01:56:09.681Z,2.78
2022-12-25T01:59:16.342Z,3.35
2022-12-25T02:02:18.226Z,3.25
2022-12-25T02:05:26.991Z,3.13
2022-12-25T02:08:28.608Z,2.95
2022-12-25T02:11:48.853Z,2.95
2022-12-25T02:14:52.547Z,3.72
2022-12-25T02:17:54.090Z,4.32
2022-12-25T02:21:16.996Z,3.83
2022-12-25T02:24:53.551Z,3.53
2022-12-25T02:28:06.455Z,2.63
2022-12-25T02:31:13.359Z,2.55
2022-12-25T02:34:23.651Z,3.20
2022-12-25T02:37:35.946Z,2.42
2022-12-25T02:40:50.058Z,2.80
2022-12-25T02:44:10.466Z,3.47
2022-12-25T02:47:31.586Z,2.95
2022-12-25T02:50:52.111Z,3.85
2022-12-25T02:54:15.465Z,2.67
2022-12-25T02:57:38.935Z,3.13
2022-12-25T03:01:03.483Z,2.75
2022-12-25T03:04:30.036Z,2.65
2022-12-25T03:07:37.691Z,4.23
2022-12-25T03:11:04.048Z,1.98
2022-12-25T03:14:26.823Z,1.65
2022-12-25T03:17:28.446Z,2.97
2022-12-25T03:20:49.865Z,2.20
2022-12-25T03:24:22.334Z,2.40
2022-12-25T03:27:25.839Z,2.72
2022-12-25T03:31:00.230Z,2.80
2022-12-25T03:34:28.627Z,3.40
2022-12-25T03:38:12.495Z,2.55
2022-12-25T03:42:03.173Z,2.38
2022-12-25T03:46:00.147Z,3.28
2022-12-25T03:49:40.169Z,3.15
2022-12-25T03:53:02.874Z,3.33
2022-12-25T03:56:24.093Z,3.05
2022-12-25T03:59:44.298Z,3.50
2022-12-25T04:03:04.787Z,3.10
2022-12-25T04:06:25.018Z,2.53
2022-12-25T04:09:45.763Z,2.67
2022-12-25T04:13:06.056Z,2.95
2022-12-25T04:16:26.461Z,2.58
2022-12-25T04:19:57.371Z,3.20
2022-12-25T04:23:18.047Z,2.42
2022-12-25T04:26:38.027Z,2.47
2022-12-25T04:29:58.184Z,2.97
2022-12-25T04:33:18.219Z,3.28
2022-12-25T04:36:19.867Z,3.92
2022-12-25T04:39:21.463Z,4.38
2022-12-25T04:42:23.126Z,4.22
2022-12-25T04:45:24.737Z,4.20
2022-12-25T04:48:28.651Z,4.72
2022-12-25T04:51:30.321Z,5.63
2022-12-25T04:54:32.075Z,4.70
2022-12-25T04:57:33.974Z,4.30
2022-12-25T05:00:36.010Z,4.80
2022-12-25T05:03:38.195Z,4.53
2022-12-25T05:06:40.390Z,4.40
2022-12-25T05:09:42.045Z,5.18
2022-12-25T05:12:44.004Z,5.20
2022-12-25T05:15:45.686Z,4.95
2022-12-25T05:18:51.958Z,4.95
2022-12-25T05:21:54.382Z,4.63
2022-12-25T05:24:56.012Z,4.22
2022-12-25T05:27:57.673Z,3.90
2022-12-25T05:30:59.429Z,5.07
2022-12-25T05:34:01.171Z,3.90
2022-12-25T05:37:04.002Z,4.70
2022-12-25T05:40:06.463Z,4.90
2022-12-25T05:43:08.287Z,5.18
2022-12-25T05:46:11.526Z,4.20
2022-12-25T05:49:13.212Z,4.65
2022-12-25T05:52:14.786Z,35.63
2022-12-25T05:55:16.503Z,7.63
2022-12-25T05:58:18.113Z,6.40
2022-12-25T06:01:23.810Z,8.27
2022-12-25T06:04:26.797Z,7.67
2022-12-25T06:07:28.427Z,6.05
2022-12-25T06:10:30.148Z,5.30
2022-12-25T06:13:32.743Z,5.50
2022-12-25T06:16:38.248Z,5.68
2022-12-25T06:19:42.561Z,13.63
2022-12-25T06:22:44.337Z,10.80
2022-12-25T06:25:46.101Z,7.85
2022-12-25T06:28:48.123Z,6.63
2022-12-25T06:31:49.833Z,5.85
2022-12-25T06:34:51.505Z,6.93
2022-12-25T06:37:53.327Z,5.38
2022-12-25T06:40:54.918Z,6.10
2022-12-25T06:43:58.808Z,5.70
2022-12-25T06:47:00.407Z,6.53
2022-12-25T06:50:02.316Z,5.13
2022-12-25T06:53:03.943Z,5.63
2022-12-25T06:56:07.583Z,5.72
2022-12-25T06:59:10.371Z,5.93
2022-12-25T07:02:19.405Z,5.50
2022-12-25T07:05:21.103Z,4.80
2022-12-25T07:08:22.731Z,5.28
2022-12-25T07:11:25.037Z,9.48
2022-12-25T07:14:26.613Z,5.75
2022-12-25T07:17:28.302Z,5.60
2022-12-25T07:20:30.123Z,5.93
2022-12-25T07:23:31.685Z,5.65
2022-12-25T07:26:33.263Z,5.57
2022-12-25T07:29:35.288Z,5.70
2022-12-25T07:32:36.912Z,5.07
2022-12-25T07:35:38.808Z,4.47
2022-12-25T07:38:42.016Z,4.70
2022-12-25T07:41:44.381Z,4.90
2022-12-25T07:44:49.238Z,3.77
2022-12-25T07:47:53.784Z,5.22
2022-12-25T07:50:57.714Z,4.65
2022-12-25T07:53:59.349Z,4.65
2022-12-25T07:57:00.908Z,4.70
2022-12-25T08:00:06.600Z,4.40
2022-12-25T08:03:15.914Z,4.55
2022-12-25T08:06:18.869Z,5.30
2022-12-25T08:09:20.488Z,6.03
2022-12-25T08:12:22.199Z,6.18
2022-12-25T08:15:23.822Z,6.45
2022-12-25T08:18:29.934Z,6.47
2022-12-25T08:24:33.537Z,5.80
2022-12-25T08:27:35.410Z,6.63
2022-12-25T08:30:40.972Z,7.15
2022-12-25T08:33:43.209Z,6.77
2022-12-25T08:36:44.864Z,9.60
2022-12-25T08:39:46.457Z,9.90
2022-12-25T08:42:47.991Z,7.75
2022-12-25T08:45:49.607Z,7.60
2022-12-25T08:48:51.357Z,36.25
2022-12-25T08:51:53.134Z,76.63
2022-12-25T08:54:54.890Z,34.92
2022-12-25T08:57:56.616Z,21.02
2022-12-25T09:00:58.602Z,17.75
2022-12-25T09:04:00.335Z,18.92
2022-12-25T09:07:02.696Z,14.73
2022-12-25T09:10:04.677Z,16.85
2022-12-25T09:13:06.497Z,10.20
2022-12-25T09:16:10.435Z,9.48
2022-12-25T09:19:12.095Z,9.50
2022-12-25T09:22:13.673Z,10.05
2022-12-25T09:25:15.411Z,8.25
2022-12-25T09:28:17.032Z,8.10
2022-12-25T09:31:19.137Z,7.70
2022-12-25T09:34:20.797Z,7.53
2022-12-25T09:37:22.403Z,6.63
2022-12-25T09:40:28.567Z,6.35
2022-12-25T09:43:33.812Z,7.53
2022-12-25T09:46:43.114Z,8.25
2022-12-25T09:50:02.660Z,7.78
2022-12-25T09:53:18.781Z,8.23
2022-12-25T09:56:27.306Z,11.27
2022-12-25T09:59:29.296Z,11.90
2022-12-25T10:02:36.647Z,6.60
2022-12-25T10:05:55.805Z,6.57
2022-12-25T10:09:11.785Z,6.80
2022-12-25T10:12:35.331Z,6.93
2022-12-25T10:16:05.698Z,6.53
2022-12-25T10:19:22.461Z,6.13
2022-12-25T10:22:32.121Z,5.80
2022-12-25T10:25:36.839Z,5.60
2022-12-25T10:28:42.856Z,4.80
2022-12-25T10:31:46.727Z,4.40
2022-12-25T10:34:48.944Z,5.35
2022-12-25T10:38:00.154Z,4.55
2022-12-25T10:41:34.227Z,4.93
2022-12-25T10:44:36.604Z,4.70
2022-12-25T10:47:42.047Z,5.40
2022-12-25T10:50:44.039Z,6.10
2022-12-25T10:53:45.558Z,5.35
2022-12-25T10:56:56.450Z,5.40
2022-12-25T10:59:58.150Z,5.15
2022-12-25T11:03:00.791Z,5.13
2022-12-25T11:06:03.016Z,5.88
2022-12-25T11:09:05.101Z,6.13
2022-12-25T11:12:07.310Z,6.55
2022-12-25T11:15:36.746Z,6.57
2022-12-25T11:18:50.875Z,6.90
2022-12-25T11:21:57.271Z,6.45
2022-12-25T11:25:12.547Z,7.68
2022-12-25T11:28:14.381Z,6.53
2022-12-25T11:31:46.657Z,6.55
2022-12-25T11:34:50.171Z,5.75
2022-12-25T11:37:52.803Z,7.60
2022-12-25T11:41:02.698Z,7.15
2022-12-25T11:44:19.368Z,5.88
2022-12-25T11:50:49.854Z,6.55
2022-12-25T11:53:55.435Z,5.97
2022-12-25T11:56:59.697Z,6.50
2022-12-25T12:00:15.737Z,6.80
2022-12-25T12:03:37.244Z,6.05
2022-12-25T12:06:52.517Z,5.60
2022-12-25T12:10:26.659Z,5.63
2022-12-25T12:13:40.736Z,5.28
2022-12-25T12:16:42.486Z,5.25
2022-12-25T12:19:44.436Z,5.70
2022-12-25T12:22:50.853Z,6.40
2022-12-25T12:28:59.188Z,5.35
2022-12-25T12:32:04.961Z,6.18
2022-12-25T12:35:20.486Z,6.25
2022-12-25T12:38:24.193Z,7.53
2022-12-25T12:41:46.498Z,6.05
2022-12-25T12:44:50.306Z,6.53
2022-12-25T12:47:53.264Z,6.82
2022-12-25T12:51:10.694Z,6.15
2022-12-25T12:54:22.643Z,6.10
2022-12-25T12:57:27.149Z,6.15
2022-12-25T13:00:44.572Z,7.10
2022-12-25T13:04:11.019Z,5.95
2022-12-25T13:07:20.105Z,6.80
2022-12-25T13:10:38.434Z,5.97
2022-12-25T13:13:42.812Z,6.70
2022-12-25T13:16:47.366Z,5.82
2022-12-25T13:19:54.763Z,6.32
2022-12-25T13:22:56.364Z,6.68
2022-12-25T13:26:14.330Z,6.40
2022-12-25T13:29:38.686Z,6.32
2022-12-25T13:32:41.948Z,6.38
2022-12-25T13:35:44.015Z,6.55
2022-12-25T13:38:48.176Z,6.85
2022-12-25T13:42:09.333Z,6.28
2022-12-25T13:45:13.953Z,6.15
2022-12-25T13:48:16.196Z,6.03
2022-12-25T13:51:20.541Z,6.28
2022-12-25T13:54:22.132Z,6.68
2022-12-25T13:57:31.258Z,6.40
2022-12-25T14:00:38.783Z,7.47
2022-12-25T14:03:43.975Z,7.13
2022-12-25T14:06:45.926Z,7.78
2022-12-25T14:09:51.091Z,7.03
2022-12-25T14:12:56.056Z,6.22
2022-12-25T14:15:58.030Z,7.38
2022-12-25T14:19:02.457Z,8.80
2022-12-25T14:22:13.806Z,6.82
2022-12-25T14:25:16.090Z,7.55
2022-12-25T14:28:25.530Z,6.68
2022-12-25T14:31:29.323Z,6.63
2022-12-25T14:34:32.449Z,7.68
2022-12-25T14:37:34.322Z,6.30
2022-12-25T14:40:36.110Z,5.60
2022-12-25T14:43:37.793Z,5.88
2022-12-25T14:46:39.541Z,4.40
2022-12-25T14:49:41.694Z,5.13
2022-12-25T14:52:45.048Z,4.88
2022-12-25T14:55:49.297Z,4.80
2022-12-25T14:58:53.740Z,4.47
2022-12-25T15:01:58.857Z,4.43
2022-12-25T15:05:00.620Z,4.53
2022-12-25T15:08:02.181Z,5.07
2022-12-25T15:11:04.376Z,4.15
2022-12-25T15:14:06.288Z,4.38
2022-12-25T15:17:25.013Z,4.45
2022-12-25T15:20:32.758Z,4.60
2022-12-25T15:23:34.385Z,4.72
2022-12-25T15:26:35.945Z,4.90
2022-12-25T15:30:08.507Z,4.30
2022-12-25T15:32:59.062Z,3.75
2022-12-25T15:36:00.793Z,5.18
2022-12-25T15:39:02.382Z,4.28
2022-12-25T15:42:12.932Z,4.00
2022-12-25T15:45:22.251Z,4.22
2022-12-25T15:48:23.813Z,4.10
2022-12-25T15:51:25.834Z,4.10
2022-12-25T15:54:27.500Z,4.40
2022-12-25T15:57:30.630Z,4.95
2022-12-25T16:00:32.285Z,5.43
2022-12-25T16:03:34.002Z,5.50
2022-12-25T16:06:35.664Z,4.50
2022-12-25T16:09:37.614Z,4.82
2022-12-25T16:12:39.365Z,4.72
2022-12-25T16:15:41.429Z,4.07
2022-12-25T16:18:47.337Z,4.63
2022-12-25T16:21:52.653Z,5.50
2022-12-25T16:25:05.663Z,5.30
2022-12-25T16:28:11.980Z,4.45
2022-12-25T16:31:14.183Z,5.68
2022-12-25T16:34:20.718Z,5.38
2022-12-25T16:37:22.789Z,4.78
2022-12-25T16:40:24.954Z,4.53
2022-12-25T16:43:27.395Z,4.93
2022-12-25T16:46:31.999Z,6.20
2022-12-25T16:49:33.845Z,4.43
2022-12-25T16:52:36.163Z,4.95
2022-12-25T16:55:38.584Z,5.85
2022-12-25T16:58:41.765Z,4.43
2022-12-25T17:01:43.667Z,4.78
2022-12-25T17:04:46.153Z,6.05
2022-12-25T17:07:48.106Z,5.13
2022-12-25T17:10:50.045Z,4.72
2022-12-25T17:13:52.234Z,5.00
2022-12-25T17:16:56.963Z,4.68
2022-12-25T17:19:58.793Z,4.50
2022-12-25T17:23:00.536Z,5.22
2022-12-25T17:26:02.417Z,5.10
2022-12-25T17:29:04.525Z,4.72
2022-12-25T17:32:07.991Z,6.00
2022-12-25T17:35:14.626Z,5.22
2022-12-25T17:38:16.237Z,6.22
2022-12-25T17:41:19.202Z,4.90
2022-12-25T17:44:21.158Z,5.45
2022-12-25T17:47:22.778Z,4.60
2022-12-25T17:50:25.701Z,5.05
2022-12-25T17:53:27.836Z,6.50
2022-12-25T17:56:29.525Z,6.85
2022-12-25T17:59:31.157Z,6.68
2022-12-25T18:02:33.100Z,6.13
2022-12-25T18:05:37.984Z,5.05
2022-12-25T18:08:40.587Z,5.10
2022-12-25T18:11:43.883Z,4.82
2022-12-25T18:14:45.722Z,5.80
2022-12-25T18:17:47.356Z,6.22
2022-12-25T18:20:49.089Z,5.10
2022-12-25T18:23:50.921Z,5.28
2022-12-25T18:26:52.523Z,4.50
2022-12-25T18:29:54.136Z,4.80
2022-12-25T18:32:55.775Z,6.65
2022-12-25T18:35:59.481Z,5.30
2022-12-25T18:39:02.007Z,4.78
2022-12-25T18:42:22.347Z,4.63
2022-12-25T18:45:24.020Z,5.53
2022-12-25T18:48:26.274Z,5.88
2022-12-25T18:51:34.896Z,5.45
2022-12-25T18:54:38.429Z,5.47
2022-12-25T18:57:40.978Z,4.60
2022-12-25T19:00:42.818Z,5.97
2022-12-25T19:03:45.973Z,7.35
2022-12-25T19:06:49.503Z,5.00
2022-12-25T19:09:51.370Z,4.88
2022-12-25T19:12:53.167Z,5.57
2022-12-25T19:15:59.726Z,4.75
2022-12-25T19:19:02.353Z,5.50
2022-12-25T19:22:03.993Z,5.13
2022-12-25T19:25:06.284Z,5.05
2022-12-25T19:28:07.928Z,4.78
2022-12-25T19:31:10.797Z,4.78
2022-12-25T19:34:12.837Z,4.72
2022-12-25T19:37:15.123Z,4.65
2022-12-25T19:40:16.960Z,4.85
2022-12-25T19:43:18.683Z,5.47
2022-12-25T19:46:24.573Z,4.90
2022-12-25T19:49:26.415Z,4.60
2022-12-25T19:52:28.092Z,6.03
2022-12-25T19:55:31.962Z,5.80
2022-12-25T19:58:33.613Z,4.55
2022-12-25T20:01:35.458Z,5.53
2022-12-25T20:04:37.257Z,4.60
2022-12-25T20:07:38.839Z,4.45
2022-12-25T20:10:45.267Z,5.07
2022-12-25T20:13:47.144Z,4.47
2022-12-25T20:16:48.786Z,4.32
2022-12-25T20:19:50.438Z,4.40
2022-12-25T20:22:52.028Z,4.43
2022-12-25T20:25:54.130Z,5.65
2022-12-25T20:28:56.242Z,5.65
2022-12-25T20:31:57.883Z,5.10
2022-12-25T20:34:59.543Z,4.50
2022-12-25T20:38:01.155Z,4.82
2022-12-25T20:44:28.515Z,4.85
2022-12-25T20:47:30.165Z,4.50
2022-12-25T20:50:32.454Z,5.30
2022-12-25T20:53:34.116Z,4.80
2022-12-25T20:56:36.491Z,4.65
2022-12-25T20:59:38.267Z,5.32
2022-12-25T21:02:40.071Z,6.43
2022-12-25T21:05:49.894Z,5.43
2022-12-25T21:08:51.835Z,5.60
2022-12-25T21:11:53.498Z,6.63
2022-12-25T21:14:55.141Z,5.63
2022-12-25T21:17:56.924Z,5.68
2022-12-25T21:20:59.472Z,9.77
2022-12-25T21:24:01.074Z,6.05
2022-12-25T21:27:02.698Z,6.05
2022-12-25T21:30:14.776Z,5.60
2022-12-25T21:33:36.115Z,5.13
2022-12-25T21:36:37.994Z,5.75
2022-12-25T21:39:39.701Z,6.35
2022-12-25T21:42:41.376Z,5.07
2022-12-25T21:45:43.085Z,5.70
2022-12-25T21:48:45.370Z,4.93
2022-12-25T21:52:05.567Z,5.70
2022-12-25T21:55:07.857Z,4.85
2022-12-25T21:58:09.696Z,4.90
2022-12-25T22:01:11.835Z,4.53
2022-12-25T22:04:15.888Z,4.50
2022-12-25T22:07:17.595Z,5.05
2022-12-25T22:10:19.230Z,5.65
2022-12-25T22:13:39.615Z,5.18
2022-12-25T22:16:59.969Z,6.50
2022-12-25T22:20:01.876Z,4.60
2022-12-25T22:23:04.233Z,5.25
2022-12-25T22:26:06.037Z,4.80
2022-12-25T22:29:07.681Z,4.65
2022-12-25T22:32:10.470Z,6.38
2022-12-25T22:35:13.437Z,6.10
2022-12-25T22:38:15.031Z,4.80
2022-12-25T22:41:16.681Z,5.15
2022-12-25T22:44:18.635Z,5.32
2022-12-25T22:47:20.466Z,5.13
2022-12-25T22:50:22.092Z,4.45
2022-12-25T22:53:23.677Z,5.43
2022-12-25T22:56:25.327Z,5.22
2022-12-25T22:59:27.144Z,4.88
2022-12-25T23:02:29.046Z,4.85
2022-12-25T23:05:30.922Z,5.30
2022-12-25T23:08:32.611Z,5.25
2022-12-25T23:11:35.731Z,4.72
2022-12-25T23:14:41.594Z,5.68
2022-12-25T23:18:01.765Z,5.38
2022-12-25T23:21:23.283Z,5.70
2022-12-25T23:24:44.041Z,5.20
2022-12-25T23:27:45.803Z,6.85
2022-12-25T23:30:47.539Z,4.80
2022-12-25T23:33:49.097Z,5.70
2022-12-25T23:36:50.725Z,4.95
2022-12-25T23:39:52.389Z,5.00
2022-12-25T23:42:53.997Z,5.72
2022-12-25T23:45:55.702Z,4.63
2022-12-25T23:48:57.483Z,5.50
2022-12-25T23:51:59.283Z,5.72
2022-12-25T23:55:00.940Z,5.13
2022-12-25T23:58:02.604Z,5.43
